sensor_id;sensor_type;location;lat;lon;timestamp;P1;durP1;ratioP1;P2;durP2;ratioP2
60078;SDS011;45951;45.824;8.824;2023-11-21T00:01:19;35.30;;;26.88;;
60078;SDS011;45951;45.824;8.824;2023-11-21T00:02:59;34.28;;;26.42;;
60078;SDS011;45951;45.824;8.824;2023-11-21T00:04:39;35.75;;;26.85;;
60078;SDS011;45951;45.824;8.824;2023-11-21T00:06:20;32.47;;;26.25;;
60078;SDS011;45951;45.824;8.824;2023-11-21T00:08:00;31.40;;;25.17;;
60078;SDS011;45951;45.824;8.824;2023-11-21T00:09:41;33.15;;;26.83;;
60078;SDS011;45951;45.824;8.824;2023-11-21T00:11:21;33.60;;;26.30;;
60078;SDS011;45951;45.824;8.824;2023-11-21T00:13:01;37.35;;;26.80;;
60078;SDS011;45951;45.824;8.824;2023-11-21T00:14:42;33.42;;;25.90;;
60078;SDS011;45951;45.824;8.824;2023-11-21T00:16:23;35.53;;;26.90;;
60078;SDS011;45951;45.824;8.824;2023-11-21T00:18:05;33.80;;;26.88;;
60078;SDS011;45951;45.824;8.824;2023-11-21T00:19:45;34.67;;;27.33;;
60078;SDS011;45951;45.824;8.824;2023-11-21T00:21:26;34.60;;;26.58;;
60078;SDS011;45951;45.824;8.824;2023-11-21T00:23:06;32.25;;;25.58;;
60078;SDS011;45951;45.824;8.824;2023-11-21T00:24:47;36.75;;;27.30;;
60078;SDS011;45951;45.824;8.824;2023-11-21T00:26:28;38.90;;;27.52;;
60078;SDS011;45951;45.824;8.824;2023-11-21T00:28:08;32.78;;;26.10;;
60078;SDS011;45951;45.824;8.824;2023-11-21T00:29:51;35.03;;;27.15;;
60078;SDS011;45951;45.824;8.824;2023-11-21T00:31:31;33.03;;;25.55;;
60078;SDS011;45951;45.824;8.824;2023-11-21T00:33:11;31.25;;;26.15;;
60078;SDS011;45951;45.824;8.824;2023-11-21T00:34:52;34.90;;;26.27;;
60078;SDS011;45951;45.824;8.824;2023-11-21T00:36:32;33.30;;;26.58;;
60078;SDS011;45951;45.824;8.824;2023-11-21T00:38:12;37.10;;;25.70;;
60078;SDS011;45951;45.824;8.824;2023-11-21T00:39:53;33.92;;;27.23;;
60078;SDS011;45951;45.824;8.824;2023-11-21T00:41:33;33.75;;;26.17;;
60078;SDS011;45951;45.824;8.824;2023-11-21T00:43:13;33.45;;;26.52;;
60078;SDS011;45951;45.824;8.824;2023-11-21T00:44:54;32.78;;;26.08;;
60078;SDS011;45951;45.824;8.824;2023-11-21T00:46:34;37.47;;;28.23;;
60078;SDS011;45951;45.824;8.824;2023-11-21T00:48:14;34.42;;;27.08;;
60078;SDS011;45951;45.824;8.824;2023-11-21T00:49:55;33.30;;;25.40;;
60078;SDS011;45951;45.824;8.824;2023-11-21T00:51:36;33.42;;;26.30;;
60078;SDS011;45951;45.824;8.824;2023-11-21T00:53:17;32.47;;;25.42;;
60078;SDS011;45951;45.824;8.824;2023-11-21T00:54:57;31.63;;;25.33;;
60078;SDS011;45951;45.824;8.824;2023-11-21T00:56:39;33.28;;;25.95;;
60078;SDS011;45951;45.824;8.824;2023-11-21T00:58:21;36.15;;;26.77;;
60078;SDS011;45951;45.824;8.824;2023-11-21T01:00:01;32.38;;;26.00;;
60078;SDS011;45951;45.824;8.824;2023-11-21T01:01:44;34.70;;;26.25;;
60078;SDS011;45951;45.824;8.824;2023-11-21T01:03:24;34.22;;;26.25;;
60078;SDS011;45951;45.824;8.824;2023-11-21T01:05:05;34.10;;;25.02;;
60078;SDS011;45951;45.824;8.824;2023-11-21T01:06:47;34.00;;;26.30;;
60078;SDS011;45951;45.824;8.824;2023-11-21T01:08:28;34.08;;;26.27;;
60078;SDS011;45951;45.824;8.824;2023-11-21T01:10:09;34.60;;;26.27;;
60078;SDS011;45951;45.824;8.824;2023-11-21T01:11:49;32.38;;;25.33;;
60078;SDS011;45951;45.824;8.824;2023-11-21T01:13:31;34.72;;;25.40;;
60078;SDS011;45951;45.824;8.824;2023-11-21T01:15:12;39.45;;;26.30;;
60078;SDS011;45951;45.824;8.824;2023-11-21T01:16:52;34.28;;;26.40;;
60078;SDS011;45951;45.824;8.824;2023-11-21T01:18:33;31.77;;;26.23;;
60078;SDS011;45951;45.824;8.824;2023-11-21T01:20:13;33.35;;;26.05;;
60078;SDS011;45951;45.824;8.824;2023-11-21T01:21:54;33.22;;;25.33;;
60078;SDS011;45951;45.824;8.824;2023-11-21T01:23:34;34.90;;;25.00;;
60078;SDS011;45951;45.824;8.824;2023-11-21T01:25:15;29.85;;;25.15;;
60078;SDS011;45951;45.824;8.824;2023-11-21T01:26:56;36.30;;;26.95;;
60078;SDS011;45951;45.824;8.824;2023-11-21T01:28:36;38.30;;;27.80;;
60078;SDS011;45951;45.824;8.824;2023-11-21T01:30:17;33.55;;;26.45;;
60078;SDS011;45951;45.824;8.824;2023-11-21T01:31:58;33.65;;;26.02;;
60078;SDS011;45951;45.824;8.824;2023-11-21T01:33:38;37.40;;;26.65;;
60078;SDS011;45951;45.824;8.824;2023-11-21T01:35:18;35.28;;;26.85;;
60078;SDS011;45951;45.824;8.824;2023-11-21T01:36:59;34.53;;;25.83;;
60078;SDS011;45951;45.824;8.824;2023-11-21T01:38:39;36.70;;;26.40;;
60078;SDS011;45951;45.824;8.824;2023-11-21T01:40:19;34.60;;;27.45;;
60078;SDS011;45951;45.824;8.824;2023-11-21T01:42:01;36.70;;;27.38;;
60078;SDS011;45951;45.824;8.824;2023-11-21T01:43:41;32.08;;;26.73;;
60078;SDS011;45951;45.824;8.824;2023-11-21T01:45:21;36.08;;;26.92;;
60078;SDS011;45951;45.824;8.824;2023-11-21T01:47:02;37.92;;;28.52;;
60078;SDS011;45951;45.824;8.824;2023-11-21T01:48:44;35.50;;;28.02;;
60078;SDS011;45951;45.824;8.824;2023-11-21T01:50:25;37.28;;;28.15;;
60078;SDS011;45951;45.824;8.824;2023-11-21T01:52:05;39.85;;;28.92;;
60078;SDS011;45951;45.824;8.824;2023-11-21T01:53:46;37.80;;;29.23;;
60078;SDS011;45951;45.824;8.824;2023-11-21T01:55:26;37.80;;;28.73;;
60078;SDS011;45951;45.824;8.824;2023-11-21T01:57:07;36.13;;;27.92;;
60078;SDS011;45951;45.824;8.824;2023-11-21T01:58:47;35.33;;;27.52;;
60078;SDS011;45951;45.824;8.824;2023-11-21T02:00:28;36.75;;;28.58;;
60078;SDS011;45951;45.824;8.824;2023-11-21T02:02:09;38.47;;;28.83;;
60078;SDS011;45951;45.824;8.824;2023-11-21T02:03:50;35.63;;;26.77;;
60078;SDS011;45951;45.824;8.824;2023-11-21T02:05:30;35.53;;;28.17;;
60078;SDS011;45951;45.824;8.824;2023-11-21T02:07:11;35.63;;;27.92;;
60078;SDS011;45951;45.824;8.824;2023-11-21T02:08:51;36.80;;;27.30;;
60078;SDS011;45951;45.824;8.824;2023-11-21T02:10:33;36.83;;;28.45;;
60078;SDS011;45951;45.824;8.824;2023-11-21T02:12:13;33.42;;;26.40;;
60078;SDS011;45951;45.824;8.824;2023-11-21T02:13:53;33.78;;;26.45;;
60078;SDS011;45951;45.824;8.824;2023-11-21T02:15:34;35.53;;;28.52;;
60078;SDS011;45951;45.824;8.824;2023-11-21T02:17:14;33.92;;;26.80;;
60078;SDS011;45951;45.824;8.824;2023-11-21T02:18:54;35.58;;;27.98;;
60078;SDS011;45951;45.824;8.824;2023-11-21T02:20:35;36.55;;;27.17;;
60078;SDS011;45951;45.824;8.824;2023-11-21T02:22:18;34.15;;;26.83;;
60078;SDS011;45951;45.824;8.824;2023-11-21T02:23:59;36.22;;;28.65;;
60078;SDS011;45951;45.824;8.824;2023-11-21T02:25:40;36.15;;;28.00;;
60078;SDS011;45951;45.824;8.824;2023-11-21T02:27:23;39.00;;;27.85;;
60078;SDS011;45951;45.824;8.824;2023-11-21T02:29:03;35.88;;;27.33;;
60078;SDS011;45951;45.824;8.824;2023-11-21T02:30:44;33.05;;;27.73;;
60078;SDS011;45951;45.824;8.824;2023-11-21T02:32:25;33.97;;;27.42;;
60078;SDS011;45951;45.824;8.824;2023-11-21T02:34:06;34.47;;;27.55;;
60078;SDS011;45951;45.824;8.824;2023-11-21T02:35:46;36.08;;;27.42;;
60078;SDS011;45951;45.824;8.824;2023-11-21T02:37:26;37.13;;;27.55;;
60078;SDS011;45951;45.824;8.824;2023-11-21T02:39:07;37.20;;;27.77;;
60078;SDS011;45951;45.824;8.824;2023-11-21T02:40:48;37.70;;;27.27;;
60078;SDS011;45951;45.824;8.824;2023-11-21T02:42:29;40.03;;;27.88;;
60078;SDS011;45951;45.824;8.824;2023-11-21T02:44:09;36.70;;;28.75;;
60078;SDS011;45951;45.824;8.824;2023-11-21T02:45:49;35.47;;;27.73;;
60078;SDS011;45951;45.824;8.824;2023-11-21T02:47:30;38.28;;;28.85;;
60078;SDS011;45951;45.824;8.824;2023-11-21T02:49:10;38.10;;;28.33;;
60078;SDS011;45951;45.824;8.824;2023-11-21T02:50:51;36.13;;;28.02;;
60078;SDS011;45951;45.824;8.824;2023-11-21T02:52:33;37.97;;;28.38;;
60078;SDS011;45951;45.824;8.824;2023-11-21T02:54:14;34.85;;;27.55;;
60078;SDS011;45951;45.824;8.824;2023-11-21T02:55:54;38.65;;;27.65;;
60078;SDS011;45951;45.824;8.824;2023-11-21T02:57:34;36.13;;;27.95;;
60078;SDS011;45951;45.824;8.824;2023-11-21T02:59:15;38.13;;;28.23;;
60078;SDS011;45951;45.824;8.824;2023-11-21T03:00:55;34.70;;;27.77;;
60078;SDS011;45951;45.824;8.824;2023-11-21T03:02:36;37.97;;;28.55;;
60078;SDS011;45951;45.824;8.824;2023-11-21T03:04:19;34.97;;;28.35;;
60078;SDS011;45951;45.824;8.824;2023-11-21T03:06:01;37.63;;;28.83;;
60078;SDS011;45951;45.824;8.824;2023-11-21T03:07:41;39.20;;;28.63;;
60078;SDS011;45951;45.824;8.824;2023-11-21T03:09:22;36.30;;;27.40;;
60078;SDS011;45951;45.824;8.824;2023-11-21T03:11:02;36.60;;;27.60;;
60078;SDS011;45951;45.824;8.824;2023-11-21T03:12:48;34.75;;;27.60;;
60078;SDS011;45951;45.824;8.824;2023-11-21T03:14:28;38.25;;;27.67;;
60078;SDS011;45951;45.824;8.824;2023-11-21T03:16:14;34.90;;;28.08;;
60078;SDS011;45951;45.824;8.824;2023-11-21T03:18:46;35.15;;;27.08;;
60078;SDS011;45951;45.824;8.824;2023-11-21T03:20:32;35.95;;;26.58;;
60078;SDS011;45951;45.824;8.824;2023-11-21T03:22:12;37.78;;;28.00;;
60078;SDS011;45951;45.824;8.824;2023-11-21T03:24:36;37.42;;;26.92;;
60078;SDS011;45951;45.824;8.824;2023-11-21T03:26:21;33.30;;;26.63;;
60078;SDS011;45951;45.824;8.824;2023-11-21T03:28:01;33.45;;;27.85;;
60078;SDS011;45951;45.824;8.824;2023-11-21T03:29:43;36.03;;;27.85;;
60078;SDS011;45951;45.824;8.824;2023-11-21T03:32:14;38.28;;;28.45;;
60078;SDS011;45951;45.824;8.824;2023-11-21T03:34:54;35.72;;;26.50;;
60078;SDS011;45951;45.824;8.824;2023-11-21T03:37:01;37.20;;;28.05;;
60078;SDS011;45951;45.824;8.824;2023-11-21T03:38:43;38.78;;;28.50;;
60078;SDS011;45951;45.824;8.824;2023-11-21T03:40:23;34.55;;;27.90;;
60078;SDS011;45951;45.824;8.824;2023-11-21T03:42:06;37.13;;;27.65;;
60078;SDS011;45951;45.824;8.824;2023-11-21T03:43:49;34.95;;;27.23;;
60078;SDS011;45951;45.824;8.824;2023-11-21T03:45:30;35.58;;;26.55;;
60078;SDS011;45951;45.824;8.824;2023-11-21T03:47:11;37.83;;;26.50;;
60078;SDS011;45951;45.824;8.824;2023-11-21T03:48:51;35.58;;;28.10;;
60078;SDS011;45951;45.824;8.824;2023-11-21T03:50:32;34.45;;;26.55;;
60078;SDS011;45951;45.824;8.824;2023-11-21T03:52:12;34.60;;;26.23;;
60078;SDS011;45951;45.824;8.824;2023-11-21T03:53:52;39.95;;;28.33;;
60078;SDS011;45951;45.824;8.824;2023-11-21T03:55:33;35.83;;;26.95;;
60078;SDS011;45951;45.824;8.824;2023-11-21T03:57:13;37.83;;;27.95;;
60078;SDS011;45951;45.824;8.824;2023-11-21T03:58:54;37.90;;;26.63;;
60078;SDS011;45951;45.824;8.824;2023-11-21T04:00:34;35.45;;;27.10;;
60078;SDS011;45951;45.824;8.824;2023-11-21T04:02:14;36.90;;;26.17;;
60078;SDS011;45951;45.824;8.824;2023-11-21T04:03:55;36.38;;;26.52;;
60078;SDS011;45951;45.824;8.824;2023-11-21T04:05:35;34.45;;;26.42;;
60078;SDS011;45951;45.824;8.824;2023-11-21T04:07:16;38.55;;;26.98;;
60078;SDS011;45951;45.824;8.824;2023-11-21T04:08:56;36.95;;;26.02;;
60078;SDS011;45951;45.824;8.824;2023-11-21T04:10:36;37.78;;;26.25;;
60078;SDS011;45951;45.824;8.824;2023-11-21T04:12:19;36.55;;;26.38;;
60078;SDS011;45951;45.824;8.824;2023-11-21T04:14:00;35.40;;;27.08;;
60078;SDS011;45951;45.824;8.824;2023-11-21T04:15:40;34.58;;;25.67;;
60078;SDS011;45951;45.824;8.824;2023-11-21T04:17:20;35.95;;;26.27;;
60078;SDS011;45951;45.824;8.824;2023-11-21T04:19:00;35.08;;;25.98;;
60078;SDS011;45951;45.824;8.824;2023-11-21T04:20:41;38.13;;;26.77;;
60078;SDS011;45951;45.824;8.824;2023-11-21T04:22:24;37.25;;;26.77;;
60078;SDS011;45951;45.824;8.824;2023-11-21T04:24:04;35.63;;;26.20;;
60078;SDS011;45951;45.824;8.824;2023-11-21T04:25:45;39.05;;;27.40;;
60078;SDS011;45951;45.824;8.824;2023-11-21T04:27:25;33.95;;;24.92;;
60078;SDS011;45951;45.824;8.824;2023-11-21T04:29:05;34.13;;;25.52;;
60078;SDS011;45951;45.824;8.824;2023-11-21T04:30:46;35.63;;;26.45;;
60078;SDS011;45951;45.824;8.824;2023-11-21T04:32:26;35.88;;;25.55;;
60078;SDS011;45951;45.824;8.824;2023-11-21T04:34:06;34.45;;;24.65;;
60078;SDS011;45951;45.824;8.824;2023-11-21T04:35:46;33.40;;;24.77;;
60078;SDS011;45951;45.824;8.824;2023-11-21T04:37:27;33.17;;;24.90;;
60078;SDS011;45951;45.824;8.824;2023-11-21T04:39:07;34.60;;;24.60;;
60078;SDS011;45951;45.824;8.824;2023-11-21T04:40:48;34.58;;;24.00;;
60078;SDS011;45951;45.824;8.824;2023-11-21T04:42:29;34.65;;;25.52;;
60078;SDS011;45951;45.824;8.824;2023-11-21T04:44:09;33.00;;;24.20;;
60078;SDS011;45951;45.824;8.824;2023-11-21T04:45:49;34.35;;;24.45;;
60078;SDS011;45951;45.824;8.824;2023-11-21T04:47:30;32.55;;;22.83;;
60078;SDS011;45951;45.824;8.824;2023-11-21T04:49:10;34.58;;;23.83;;
60078;SDS011;45951;45.824;8.824;2023-11-21T04:50:51;32.53;;;23.30;;
60078;SDS011;45951;45.824;8.824;2023-11-21T04:52:31;31.42;;;23.02;;
60078;SDS011;45951;45.824;8.824;2023-11-21T04:54:13;32.33;;;22.92;;
60078;SDS011;45951;45.824;8.824;2023-11-21T04:55:53;34.47;;;24.55;;
60078;SDS011;45951;45.824;8.824;2023-11-21T04:57:33;31.10;;;22.90;;
60078;SDS011;45951;45.824;8.824;2023-11-21T04:59:14;32.50;;;23.98;;
60078;SDS011;45951;45.824;8.824;2023-11-21T05:00:54;33.28;;;22.88;;
60078;SDS011;45951;45.824;8.824;2023-11-21T05:02:34;30.63;;;22.05;;
60078;SDS011;45951;45.824;8.824;2023-11-21T05:04:17;33.35;;;22.67;;
60078;SDS011;45951;45.824;8.824;2023-11-21T05:05:57;30.92;;;22.15;;
60078;SDS011;45951;45.824;8.824;2023-11-21T05:07:38;34.33;;;23.02;;
60078;SDS011;45951;45.824;8.824;2023-11-21T05:09:19;30.45;;;22.20;;
60078;SDS011;45951;45.824;8.824;2023-11-21T05:10:59;33.33;;;23.15;;
60078;SDS011;45951;45.824;8.824;2023-11-21T05:12:42;31.30;;;22.52;;
60078;SDS011;45951;45.824;8.824;2023-11-21T05:14:23;33.42;;;23.30;;
60078;SDS011;45951;45.824;8.824;2023-11-21T05:16:03;35.15;;;24.88;;
60078;SDS011;45951;45.824;8.824;2023-11-21T05:17:47;33.45;;;22.50;;
60078;SDS011;45951;45.824;8.824;2023-11-21T05:19:32;33.15;;;23.13;;
60078;SDS011;45951;45.824;8.824;2023-11-21T05:21:12;33.80;;;22.65;;
60078;SDS011;45951;45.824;8.824;2023-11-21T05:22:53;35.38;;;24.70;;
60078;SDS011;45951;45.824;8.824;2023-11-21T05:24:33;31.77;;;23.65;;
60078;SDS011;45951;45.824;8.824;2023-11-21T05:26:13;34.35;;;23.38;;
60078;SDS011;45951;45.824;8.824;2023-11-21T05:27:54;30.90;;;22.10;;
60078;SDS011;45951;45.824;8.824;2023-11-21T05:29:39;30.85;;;21.95;;
60078;SDS011;45951;45.824;8.824;2023-11-21T05:31:19;31.25;;;20.95;;
60078;SDS011;45951;45.824;8.824;2023-11-21T05:32:59;33.63;;;22.08;;
60078;SDS011;45951;45.824;8.824;2023-11-21T05:34:40;35.00;;;23.80;;
60078;SDS011;45951;45.824;8.824;2023-11-21T05:36:22;34.33;;;23.05;;
60078;SDS011;45951;45.824;8.824;2023-11-21T05:38:02;33.30;;;23.63;;
60078;SDS011;45951;45.824;8.824;2023-11-21T05:39:42;31.50;;;21.85;;
60078;SDS011;45951;45.824;8.824;2023-11-21T05:41:25;32.95;;;22.95;;
60078;SDS011;45951;45.824;8.824;2023-11-21T05:43:06;28.75;;;21.17;;
60078;SDS011;45951;45.824;8.824;2023-11-21T05:44:46;31.40;;;22.08;;
60078;SDS011;45951;45.824;8.824;2023-11-21T05:46:27;29.67;;;21.42;;
60078;SDS011;45951;45.824;8.824;2023-11-21T05:48:07;32.90;;;22.35;;
60078;SDS011;45951;45.824;8.824;2023-11-21T05:49:47;32.00;;;22.40;;
60078;SDS011;45951;45.824;8.824;2023-11-21T05:51:30;31.77;;;21.88;;
60078;SDS011;45951;45.824;8.824;2023-11-21T05:53:11;31.75;;;22.77;;
60078;SDS011;45951;45.824;8.824;2023-11-21T05:54:51;33.05;;;22.55;;
60078;SDS011;45951;45.824;8.824;2023-11-21T05:56:31;34.47;;;22.65;;
60078;SDS011;45951;45.824;8.824;2023-11-21T05:58:12;30.42;;;22.05;;
60078;SDS011;45951;45.824;8.824;2023-11-21T05:59:53;29.50;;;21.58;;
60078;SDS011;45951;45.824;8.824;2023-11-21T06:01:33;30.98;;;21.23;;
60078;SDS011;45951;45.824;8.824;2023-11-21T06:03:14;32.17;;;21.98;;
60078;SDS011;45951;45.824;8.824;2023-11-21T06:04:55;29.48;;;20.70;;
60078;SDS011;45951;45.824;8.824;2023-11-21T06:06:35;28.58;;;21.63;;
60078;SDS011;45951;45.824;8.824;2023-11-21T06:08:16;34.97;;;23.23;;
60078;SDS011;45951;45.824;8.824;2023-11-21T06:09:56;31.67;;;22.75;;
60078;SDS011;45951;45.824;8.824;2023-11-21T06:11:37;31.48;;;21.60;;
60078;SDS011;45951;45.824;8.824;2023-11-21T06:13:17;33.60;;;21.85;;
60078;SDS011;45951;45.824;8.824;2023-11-21T06:15:04;32.80;;;21.90;;
60078;SDS011;45951;45.824;8.824;2023-11-21T06:16:45;31.50;;;20.90;;
60078;SDS011;45951;45.824;8.824;2023-11-21T06:18:25;32.88;;;22.58;;
60078;SDS011;45951;45.824;8.824;2023-11-21T06:20:07;33.97;;;23.90;;
60078;SDS011;45951;45.824;8.824;2023-11-21T06:21:54;32.97;;;22.70;;
60078;SDS011;45951;45.824;8.824;2023-11-21T06:23:34;35.40;;;23.33;;
60078;SDS011;45951;45.824;8.824;2023-11-21T06:25:14;37.28;;;23.65;;
60078;SDS011;45951;45.824;8.824;2023-11-21T06:26:55;33.90;;;22.30;;
60078;SDS011;45951;45.824;8.824;2023-11-21T06:28:35;35.63;;;22.38;;
60078;SDS011;45951;45.824;8.824;2023-11-21T06:30:27;32.78;;;21.77;;
60078;SDS011;45951;45.824;8.824;2023-11-21T06:32:08;34.22;;;22.75;;
60078;SDS011;45951;45.824;8.824;2023-11-21T06:33:49;38.28;;;22.15;;
60078;SDS011;45951;45.824;8.824;2023-11-21T06:35:31;31.20;;;19.92;;
60078;SDS011;45951;45.824;8.824;2023-11-21T06:37:14;31.65;;;20.85;;
60078;SDS011;45951;45.824;8.824;2023-11-21T06:38:55;29.75;;;20.50;;
60078;SDS011;45951;45.824;8.824;2023-11-21T06:40:35;32.45;;;19.63;;
60078;SDS011;45951;45.824;8.824;2023-11-21T06:42:16;31.63;;;20.10;;
60078;SDS011;45951;45.824;8.824;2023-11-21T06:43:56;29.98;;;19.52;;
60078;SDS011;45951;45.824;8.824;2023-11-21T06:45:39;30.00;;;18.10;;
60078;SDS011;45951;45.824;8.824;2023-11-21T06:47:19;28.80;;;17.58;;
60078;SDS011;45951;45.824;8.824;2023-11-21T06:49:00;29.90;;;17.45;;
60078;SDS011;45951;45.824;8.824;2023-11-21T06:50:40;28.90;;;18.23;;
60078;SDS011;45951;45.824;8.824;2023-11-21T06:52:21;27.25;;;17.73;;
60078;SDS011;45951;45.824;8.824;2023-11-21T06:54:02;26.85;;;15.88;;
60078;SDS011;45951;45.824;8.824;2023-11-21T06:55:42;23.88;;;15.20;;
60078;SDS011;45951;45.824;8.824;2023-11-21T06:57:23;29.27;;;15.82;;
60078;SDS011;45951;45.824;8.824;2023-11-21T06:59:04;26.05;;;15.25;;
60078;SDS011;45951;45.824;8.824;2023-11-21T07:00:45;24.60;;;15.13;;
60078;SDS011;45951;45.824;8.824;2023-11-21T07:02:28;22.02;;;14.60;;
60078;SDS011;45951;45.824;8.824;2023-11-21T07:04:08;18.85;;;12.57;;
60078;SDS011;45951;45.824;8.824;2023-11-21T07:05:49;20.98;;;12.85;;
60078;SDS011;45951;45.824;8.824;2023-11-21T07:07:29;21.05;;;14.75;;
60078;SDS011;45951;45.824;8.824;2023-11-21T07:09:10;21.60;;;14.23;;
60078;SDS011;45951;45.824;8.824;2023-11-21T07:10:51;23.30;;;14.00;;
60078;SDS011;45951;45.824;8.824;2023-11-21T07:12:32;21.85;;;14.75;;
60078;SDS011;45951;45.824;8.824;2023-11-21T07:14:13;23.55;;;14.18;;
60078;SDS011;45951;45.824;8.824;2023-11-21T07:15:53;22.48;;;14.07;;
60078;SDS011;45951;45.824;8.824;2023-11-21T07:17:36;25.80;;;15.13;;
60078;SDS011;45951;45.824;8.824;2023-11-21T07:19:17;24.25;;;16.30;;
60078;SDS011;45951;45.824;8.824;2023-11-21T07:21:00;25.13;;;17.90;;
60078;SDS011;45951;45.824;8.824;2023-11-21T07:23:33;24.30;;;14.80;;
60078;SDS011;45951;45.824;8.824;2023-11-21T07:25:35;22.20;;;16.05;;
60078;SDS011;45951;45.824;8.824;2023-11-21T07:27:51;24.48;;;13.85;;
60078;SDS011;45951;45.824;8.824;2023-11-21T07:29:32;22.67;;;14.75;;
60078;SDS011;45951;45.824;8.824;2023-11-21T07:32:03;22.40;;;14.52;;
60078;SDS011;45951;45.824;8.824;2023-11-21T07:34:36;23.33;;;15.05;;
60078;SDS011;45951;45.824;8.824;2023-11-21T07:37:08;22.75;;;14.82;;
60078;SDS011;45951;45.824;8.824;2023-11-21T07:39:40;23.00;;;14.35;;
60078;SDS011;45951;45.824;8.824;2023-11-21T07:42:13;24.08;;;14.18;;
60078;SDS011;45951;45.824;8.824;2023-11-21T07:44:45;22.83;;;13.65;;
60078;SDS011;45951;45.824;8.824;2023-11-21T07:47:18;21.10;;;14.75;;
60078;SDS011;45951;45.824;8.824;2023-11-21T07:49:51;20.80;;;14.40;;
60078;SDS011;45951;45.824;8.824;2023-11-21T07:52:24;20.63;;;13.45;;
60078;SDS011;45951;45.824;8.824;2023-11-21T07:54:57;22.30;;;14.10;;
60078;SDS011;45951;45.824;8.824;2023-11-21T07:57:29;21.88;;;13.88;;
60078;SDS011;45951;45.824;8.824;2023-11-21T08:00:03;20.88;;;13.18;;
60078;SDS011;45951;45.824;8.824;2023-11-21T08:02:36;19.73;;;12.48;;
60078;SDS011;45951;45.824;8.824;2023-11-21T08:05:10;19.75;;;12.52;;
60078;SDS011;45951;45.824;8.824;2023-11-21T08:07:45;20.23;;;12.50;;
60078;SDS011;45951;45.824;8.824;2023-11-21T08:10:17;21.92;;;13.32;;
60078;SDS011;45951;45.824;8.824;2023-11-21T08:12:50;21.02;;;15.15;;
60078;SDS011;45951;45.824;8.824;2023-11-21T08:15:23;21.30;;;12.55;;
60078;SDS011;45951;45.824;8.824;2023-11-21T08:17:56;20.45;;;13.13;;
60078;SDS011;45951;45.824;8.824;2023-11-21T08:20:29;19.65;;;12.73;;
60078;SDS011;45951;45.824;8.824;2023-11-21T08:23:05;19.17;;;11.23;;
60078;SDS011;45951;45.824;8.824;2023-11-21T08:25:38;20.52;;;13.48;;
60078;SDS011;45951;45.824;8.824;2023-11-21T08:28:11;22.85;;;15.13;;
60078;SDS011;45951;45.824;8.824;2023-11-21T08:30:46;29.45;;;19.60;;
60078;SDS011;45951;45.824;8.824;2023-11-21T08:33:21;26.67;;;18.52;;
60078;SDS011;45951;45.824;8.824;2023-11-21T08:35:01;25.95;;;19.30;;
60078;SDS011;45951;45.824;8.824;2023-11-21T08:36:44;24.60;;;18.58;;
60078;SDS011;45951;45.824;8.824;2023-11-21T08:38:25;28.85;;;19.42;;
60078;SDS011;45951;45.824;8.824;2023-11-21T08:40:06;28.88;;;20.85;;
60078;SDS011;45951;45.824;8.824;2023-11-21T08:41:52;27.90;;;20.70;;
60078;SDS011;45951;45.824;8.824;2023-11-21T08:43:34;29.35;;;20.17;;
60078;SDS011;45951;45.824;8.824;2023-11-21T08:45:15;32.33;;;21.35;;
60078;SDS011;45951;45.824;8.824;2023-11-21T08:46:56;31.90;;;21.23;;
60078;SDS011;45951;45.824;8.824;2023-11-21T08:48:36;33.35;;;21.40;;
60078;SDS011;45951;45.824;8.824;2023-11-21T08:50:17;29.40;;;21.52;;
60078;SDS011;45951;45.824;8.824;2023-11-21T08:51:57;34.50;;;21.52;;
60078;SDS011;45951;45.824;8.824;2023-11-21T08:53:39;32.03;;;21.77;;
60078;SDS011;45951;45.824;8.824;2023-11-21T08:55:20;28.25;;;20.65;;
60078;SDS011;45951;45.824;8.824;2023-11-21T08:57:00;26.52;;;20.27;;
60078;SDS011;45951;45.824;8.824;2023-11-21T08:58:41;32.17;;;20.73;;
60078;SDS011;45951;45.824;8.824;2023-11-21T09:00:21;28.83;;;21.15;;
60078;SDS011;45951;45.824;8.824;2023-11-21T09:02:02;28.25;;;20.20;;
60078;SDS011;45951;45.824;8.824;2023-11-21T09:03:42;27.88;;;19.50;;
60078;SDS011;45951;45.824;8.824;2023-11-21T09:05:23;28.10;;;19.67;;
60078;SDS011;45951;45.824;8.824;2023-11-21T09:07:03;26.63;;;17.73;;
60078;SDS011;45951;45.824;8.824;2023-11-21T09:08:45;29.17;;;18.55;;
60078;SDS011;45951;45.824;8.824;2023-11-21T09:10:25;26.58;;;18.13;;
60078;SDS011;45951;45.824;8.824;2023-11-21T09:12:06;27.75;;;18.63;;
60078;SDS011;45951;45.824;8.824;2023-11-21T09:13:46;30.10;;;19.40;;
60078;SDS011;45951;45.824;8.824;2023-11-21T09:15:27;28.15;;;19.05;;
60078;SDS011;45951;45.824;8.824;2023-11-21T09:17:07;25.50;;;18.48;;
60078;SDS011;45951;45.824;8.824;2023-11-21T09:18:50;26.73;;;18.63;;
60078;SDS011;45951;45.824;8.824;2023-11-21T09:20:31;29.75;;;18.00;;
60078;SDS011;45951;45.824;8.824;2023-11-21T09:22:11;27.33;;;19.13;;
60078;SDS011;45951;45.824;8.824;2023-11-21T09:23:51;26.13;;;17.27;;
60078;SDS011;45951;45.824;8.824;2023-11-21T09:25:32;29.65;;;18.98;;
60078;SDS011;45951;45.824;8.824;2023-11-21T09:27:13;25.60;;;17.83;;
60078;SDS011;45951;45.824;8.824;2023-11-21T09:28:53;27.30;;;18.75;;
60078;SDS011;45951;45.824;8.824;2023-11-21T09:30:34;27.52;;;17.42;;
60078;SDS011;45951;45.824;8.824;2023-11-21T09:32:15;29.00;;;17.88;;
60078;SDS011;45951;45.824;8.824;2023-11-21T09:33:56;27.83;;;18.05;;
60078;SDS011;45951;45.824;8.824;2023-11-21T09:35:37;24.25;;;17.83;;
60078;SDS011;45951;45.824;8.824;2023-11-21T09:37:18;25.45;;;17.33;;
60078;SDS011;45951;45.824;8.824;2023-11-21T09:38:59;21.13;;;15.60;;
60078;SDS011;45951;45.824;8.824;2023-11-21T09:40:40;20.42;;;15.35;;
60078;SDS011;45951;45.824;8.824;2023-11-21T09:42:23;21.33;;;15.80;;
60078;SDS011;45951;45.824;8.824;2023-11-21T09:44:05;18.95;;;14.30;;
60078;SDS011;45951;45.824;8.824;2023-11-21T09:45:54;19.80;;;15.23;;
60078;SDS011;45951;45.824;8.824;2023-11-21T09:47:37;16.83;;;12.57;;
60078;SDS011;45951;45.824;8.824;2023-11-21T09:49:18;16.05;;;11.98;;
60078;SDS011;45951;45.824;8.824;2023-11-21T09:51:02;14.43;;;10.65;;
60078;SDS011;45951;45.824;8.824;2023-11-21T09:52:49;14.65;;;10.88;;
60078;SDS011;45951;45.824;8.824;2023-11-21T09:54:34;14.75;;;10.52;;
60078;SDS011;45951;45.824;8.824;2023-11-21T09:56:15;15.32;;;11.10;;
60078;SDS011;45951;45.824;8.824;2023-11-21T09:57:59;15.68;;;11.73;;
60078;SDS011;45951;45.824;8.824;2023-11-21T09:59:41;15.07;;;10.13;;
60078;SDS011;45951;45.824;8.824;2023-11-21T10:01:22;12.65;;;10.73;;
60078;SDS011;45951;45.824;8.824;2023-11-21T10:03:04;15.07;;;10.73;;
60078;SDS011;45951;45.824;8.824;2023-11-21T10:04:44;14.77;;;10.63;;
60078;SDS011;45951;45.824;8.824;2023-11-21T10:06:25;16.02;;;10.10;;
60078;SDS011;45951;45.824;8.824;2023-11-21T10:08:10;16.05;;;11.18;;
60078;SDS011;45951;45.824;8.824;2023-11-21T10:09:51;16.20;;;11.23;;
60078;SDS011;45951;45.824;8.824;2023-11-21T10:11:31;15.00;;;11.30;;
60078;SDS011;45951;45.824;8.824;2023-11-21T10:13:12;15.35;;;11.13;;
60078;SDS011;45951;45.824;8.824;2023-11-21T10:14:56;15.68;;;11.55;;
60078;SDS011;45951;45.824;8.824;2023-11-21T10:16:38;14.95;;;11.10;;
60078;SDS011;45951;45.824;8.824;2023-11-21T10:18:19;16.33;;;11.70;;